Cedar Springs, MI (49319)

3:42 AM EST on February 01, 2015 (GMT -0500)
SE Cedar Springs | Change Station
CLOSE
Current Station
Personal Weather Station
Location: Cedar Springs, MI
Elevation: 865 ft
Nearby Weather Stations
Active Advisory: Winter Weather Advisory

Elev 865 ft 43.19 °N, 85.51 °W | Updated 7 seconds ago

Snow
Snow
20.7 °F
Feels Like 14 °F
N
5.0
Wind Variable Wind from SSW
Gusts 11.0 mph

Today
High -- | Low -- °F
--% Chance of Precip.
Yesterday
High -- | Low -- °F
Precip. -- in
7:57 AM 5:54 PM
Waxing Gibbous, 94% visible
Pressure 30.17 in
Visibility 1.0 miles
Clouds
Windchill 14 °F
Dew Point 18 °F
Humidity 89%
Rainfall 0.00 in
Snow Depth Not available.
UV Not available.
Pollen .10 out of 12
Air Quality Not available.
Flu Activity Not available.
SPECI KGRR 010808Z AUTO 06009KT 1SM R26L/P6000FT -SN BR VV016 M04/M06 A3017 RMK AO2 P0001 T10391056

More Conditions Fewer Conditions

Pressure 30.17 in
Visibility 1.0 miles
Clouds
Windchill 14 °F
Dew Point 18 °F
Humidity 89%
Rainfall 0.00 in
Snow Depth Not available.
UV Not available.
Pollen .10 out of 12
Air Quality Not available.
Flu Activity Not available.
SPECI KGRR 010808Z AUTO 06009KT 1SM R26L/P6000FT -SN BR VV016 M04/M06 A3017 RMK AO2 P0001 T10391056

More Conditions Fewer Conditions

10-Day Weather Forecast

Almanac

Astronomy

Feb. 01, 2015 Rise Set
Actual Time
Civil Twilight
Nautical Twilight
Astronomical Twilight
Moon
Length of Visible Light
Length of Day
Tomorrow will be .
, % of the Moon is Illuminated

Today's Extremes

State Highs State Lows

Community

WunderPhotos

Upload Photos

1,792,338 photos uploaded!

WunderBlogs® & News

Nearby

Air Quality

  Air Quality AQ Index Pollutant
Not available.

Snow Depth

Station Depth Elevation

Earthquake Activity

City Distance Mag. Time & Date
Minimum magnitude displayed is 2.5.

Coastal Water Temperatures

Place Temperature

Nearby Weather Stations